Site-Specific Table for Stillwater
(NFDRS Fuel Model T - Tallgrass with brush)
DATE TIME TAIR RELH WSPD RAIN_24H BI SC ERC IC 1-HR 10-HR 100-HR 1000-HR HERB WOODY KBDI
Mon Jul 24, 2017 9:00 am CDT 81°F 71% 4 mph 0.03 in. 0 0 0 0% 16% 17% 10% 7% 184% 152% 315
Mon Jul 24, 2017 8:00 am CDT 74°F 85% 2 mph 0.03 in. 0 0 0 0% 23% 17% 10% 7% 184% 152% 315
Mon Jul 24, 2017 7:00 am CDT 69°F 97% 1 mph 0.03 in. 0 0 0 0% 29% 17% 10% 7% 184% 152% 315
Mon Jul 24, 2017 6:00 am CDT 68°F 97% 0 mph 0.03 in. 0 0 0 0% 28% 17% 10% 7% 184% 152% 315
Mon Jul 24, 2017 5:00 am CDT 69°F 97% 0 mph 0.03 in. 0 0 0 0% 25% 17% 10% 7% 184% 152% 315
Mon Jul 24, 2017 4:00 am CDT 72°F 91% 1 mph 0.03 in. 0 0 0 0% 22% 17% 10% 7% 184% 152% 315
Mon Jul 24, 2017 3:00 am CDT 70°F 92% 2 mph 0.03 in. 0 0 0 0% 19% 16% 10% 7% 184% 152% 315
Mon Jul 24, 2017 2:00 am CDT 72°F 90% 4 mph 0.03 in. 0 0 0 0% 16% 16% 9% 7% 184% 152% 315
Mon Jul 24, 2017 1:00 am CDT 73°F 85% 2 mph 0.03 in. 0 0 0 0% 15% 15% 9% 7% 184% 152% 315
Mon Jul 24, 2017 12:00 am CDT 74°F 85% 3 mph 0.03 in. 1 0 0 0% 14% 15% 9% 7% 184% 152% 315
Sun Jul 23, 2017 11:00 pm CDT 75°F 82% 1 mph 0.03 in. 2 0 1 1% 12% 13% 9% 7% 184% 152% 315
Sun Jul 23, 2017 10:00 pm CDT 78°F 76% 5 mph 0.03 in. 4 2 1 3% 10% 12% 9% 7% 184% 152% 315
Sun Jul 23, 2017 9:00 pm CDT 81°F 71% 5 mph 0.03 in. 5 2 2 4% 9% 12% 9% 7% 184% 152% 315
Sun Jul 23, 2017 8:00 pm CDT 89°F 51% 5 mph 0.03 in. 6 2 2 5% 7% 11% 8% 7% 184% 152% 315
Sun Jul 23, 2017 7:00 pm CDT 89°F 51% 5 mph 0.03 in. 5 2 2 5% 8% 11% 8% 7% 184% 152% 315
Sun Jul 23, 2017 6:00 pm CDT 90°F 48% 8 mph 0.03 in. 6 3 1 4% 10% 12% 8% 7% 184% 152% 315
Sun Jul 23, 2017 5:00 pm CDT 92°F 51% 10 mph 0.03 in. 0 0 0 0% 18% 12% 8% 6% 184% 152% 315
Sun Jul 23, 2017 4:00 pm CDT 86°F 71% 10 mph 0.03 in. 0 0 0 0% 85% 13% 9% 7% 184% 152% 304
Sun Jul 23, 2017 3:00 pm CDT 88°F 58% 4 mph 0.00 in. 6 2 3 6% 7% 9% 8% 7% 184% 152% 304
Sun Jul 23, 2017 2:00 pm CDT 92°F 49% 11 mph 0.00 in. 10 5 3 11% 6% 9% 8% 7% 184% 152% 304
DATE TIME TAIR RELH WSPD RAIN_24H BI SC ERC IC 1-HR 10-HR 100-HR 1000-HR HERB WOODY KBDI
Sun Jul 23, 2017 1:00 pm CDT 93°F 46% 7 mph 0.00 in. 8 3 3 8% 6% 10% 8% 6% 184% 152% 304
Sun Jul 23, 2017 12:00 pm CDT 91°F 46% 8 mph 0.00 in. 8 3 2 8% 7% 11% 8% 6% 184% 152% 304
Sun Jul 23, 2017 11:00 am CDT 86°F 54% 7 mph 0.00 in. 6 3 2 5% 8% 12% 8% 7% 184% 152% 304
Sun Jul 23, 2017 10:00 am CDT 80°F 64% 6 mph 0.00 in. 5 2 1 3% 10% 13% 9% 7% 184% 152% 304
Sun Jul 23, 2017 9:00 am CDT 77°F 71% 9 mph 0.00 in. 6 3 1 4% 10% 13% 9% 7% 184% 152% 304